Date,TemperatureHighF,TemperatureAvgF,TemperatureLowF,DewpointHighF,DewpointAvgF,DewpointLowF,HumidityHigh,HumidityAvg,HumidityLow,PressureMaxIn,PressureMinIn,WindSpeedMaxMPH,WindSpeedAvgMPH,GustSpeedMaxMPH,PrecipitationSumIn
2012-1-1,45,38,34,41,37,34,100,94,82,30.01,29.55,13,3,25,0.15
2012-1-2,40,33,23,40,29,20,100,86,68,29.63,29.45,11,4,22,0.10
2012-1-3,22,10,-1,19,2,-8,88,69,54,30.04,29.63,5,2,14,0.00
2012-1-4,15,6,-5,8,-3,-12,77,67,47,30.06,29.79,3,1,6,0.00
2012-1-5,28,20,13,22,13,7,89,77,60,29.85,29.68,4,1,11,0.00
2012-1-6,25,20,14,24,17,9,97,89,80,29.84,29.68,5,0,6,0.04
2012-1-7,33,29,21,33,28,21,100,97,90,29.84,29.64,3,0,8,0.01
2012-1-8,33,26,13,33,20,9,100,79,63,30.23,29.84,4,1,10,0.00
2012-1-9,27,18,10,21,14,6,91,83,74,30.24,29.86,6,1,13,0.00
2012-1-10,33,27,18,29,21,12,86,77,64,29.95,29.71,8,2,16,0.00
2012-1-11,28,20,10,17,11,7,88,70,47,30.09,29.94,5,1,7,0.00
2012-1-12,33,29,21,30,25,14,98,85,71,30.02,29.51,14,3,22,0.05
2012-1-13,43,30,23,40,28,20,100,92,82,29.51,29.04,10,3,24,0.06
2012-1-14,25,11,-5,24,4,-11,94,73,51,30.02,29.45,3,1,9,0.01
2012-1-15,7,-1,-7,-7,-10,-14,75,65,46,30.45,30.02,5,1,9,0.00
2012-1-16,21,8,-5,14,-1,-11,80,67,44,30.49,30.00,5,1,7,0.00
2012-1-17,35,28,21,34,26,14,100,92,73,29.98,29.32,12,1,23,0.23
2012-1-18,36,21,6,36,13,-2,100,72,55,30.14,29.31,7,3,26,0.00
2012-1-19,25,14,2,18,5,-3,85,69,45,30.21,29.89,13,3,27,0.00
2012-1-20,25,17,5,20,8,-7,93,69,49,30.24,29.85,10,2,22,0.03
2012-1-21,14,8,2,8,1,-8,84,73,51,30.30,30.12,3,0,5,0.04
2012-1-22,25,10,-2,13,3,-8,85,73,50,30.49,30.30,9,0,15,0.00
2012-1-23,44,32,18,43,29,14,100,89,80,30.39,29.82,18,8,44,0.16
2012-1-24,44,37,31,43,36,26,100,97,83,30.00,29.79,13,1,28,0.01
2012-1-25,31,28,24,28,23,19,91,82,74,30.20,29.99,4,1,13,0.01
2012-1-26,33,27,20,27,19,8,99,74,38,30.20,29.92,1,0,5,0.06
2012-1-27,33,31,28,33,30,27,100,99,97,29.91,29.60,2,0,6,0.51
2012-1-29,34,29,25,26,20,16,90,68,48,29.95,29.85,8,4,17,0.92
2012-1-30,29,22,13,26,15,8,92,73,45,30.21,29.89,5,1,18,0.00
2012-1-31,26,21,14,24,18,10,97,88,82,30.20,29.95,0,0,0,0.10
2012-2-1,41,32,25,41,32,24,100,99,95,29.95,29.72,3,0,9,0.16
2012-2-2,33,25,19,33,22,14,100,85,68,30.22,29.95,4,1,9,0.01
2012-2-3,31,23,15,23,15,10,86,73,46,30.36,30.20,3,1,8,0.00
2012-2-4,30,22,9,24,15,5,97,78,51,30.22,30.13,5,1,10,0.03
2012-2-5,32,18,5,17,9,1,85,70,44,30.15,29.98,6,1,15,0.00
2012-2-6,45,33,22,29,24,16,88,71,53,29.97,29.76,8,3,16,0.00
2012-2-7,35,27,12,29,20,6,92,73,48,30.22,29.85,5,1,10,0.02
2012-2-8,35,20,7,14,5,-3,80,57,21,30.25,30.00,6,0,7,0.00
2012-2-9,41,28,17,20,16,10,76,62,37,30.03,29.95,7,2,12,0.00
2012-2-10,44,30,18,23,18,14,83,63,37,30.04,29.85,4,1,11,0.00
2012-2-11,32,25,10,24,18,3,83,74,64,29.85,29.65,5,1,18,0.00
2012-2-12,9,6,3,0,-5,-10,75,62,45,29.78,29.67,5,1,12,0.00
2012-2-13,30,18,6,14,9,-1,85,68,44,29.88,29.71,9,2,14,0.01
2012-2-14,41,30,20,22,19,13,84,66,38,30.06,29.89,7,3,15,0.00
2012-2-15,39,32,26,31,27,21,93,82,64,30.23,30.07,4,0,6,0.00
2012-2-16,46,36,31,32,30,27,95,81,53,30.25,29.95,8,1,15,0.00
2012-2-17,41,35,31,37,30,24,100,86,55,29.95,29.84,4,0,12,0.06
2012-2-18,34,30,27,27,23,19,94,76,54,29.96,29.82,5,1,11,0.02
2012-2-19,32,25,18,22,17,13,83,69,51,30.06,29.96,4,1,12,0.00
2012-2-20,30,22,13,18,12,5,89,69,41,30.26,30.04,5,2,11,0.00
2012-2-21,39,27,16,28,17,12,91,68,38,30.30,29.80,11,2,18,0.00
2012-2-22,44,36,30,34,29,24,95,76,51,29.79,29.49,10,2,18,0.00
2012-2-23,36,33,30,34,30,24,95,86,68,29.77,29.38,4,0,10,0.00
2012-2-24,35,30,26,31,26,23,100,85,65,29.78,29.24,5,0,15,0.16
2012-2-25,31,27,18,31,23,13,100,87,76,29.80,29.13,5,2,16,0.07
2012-2-26,31,18,11,12,4,-3,80,57,25,30.40,29.81,6,2,14,0.00
2012-2-27,34,22,8,31,14,2,97,70,50,30.39,29.98,10,2,16,0.00
2012-2-28,32,25,12,30,19,8,100,80,49,30.36,30.04,5,2,9,0.08
2012-2-29,34,23,11,21,14,8,89,70,39,30.36,29.94,3,0,8,0.00
2012-3-1,27,24,17,22,19,13,93,79,68,30.01,29.80,7,2,21,0.08
2012-3-2,30,23,18,23,18,14,91,81,68,30.08,29.88,11,1,21,0.00
2012-3-3,46,36,26,38,30,22,92,77,55,29.86,29.34,23,6,42,0.09
2012-3-4,43,33,24,28,23,20,92,69,44,29.60,29.52,7,2,17,0.00
2012-3-5,23,16,8,19,6,0,89,65,40,30.30,29.61,6,2,10,0.07
2012-3-6,33,17,2,10,0,-10,80,53,18,30.50,30.30,7,3,9,0.00
2012-3-7,55,38,19,28,20,9,76,50,28,30.46,30.15,8,2,16,0.00
2012-3-8,61,51,40,51,40,28,95,66,47,30.15,29.61,14,6,30,0.29
2012-3-9,39,30,22,37,24,19,99,80,50,30.10,29.78,4,1,9,0.23
2012-3-10,34,26,23,22,18,13,93,74,41,30.42,30.10,6,2,9,0.03
2012-3-11,50,38,23,30,24,17,84,59,39,30.40,30.21,9,3,18,0.00
2012-3-12,59,44,33,39,34,30,90,69,39,30.27,30.11,8,2,11,0.00
2012-3-13,62,48,40,51,42,35,97,80,57,30.11,29.87,9,3,16,0.00
2012-3-14,50,40,36,42,38,36,100,93,67,30.25,29.97,5,1,8,0.10
2012-3-15,43,37,34,39,36,33,100,95,84,30.34,30.24,7,1,10,0.00
2012-3-16,38,36,34,38,36,33,100,100,97,30.30,30.10,4,0,5,0.32
2012-3-17,53,41,35,46,39,35,100,93,72,30.37,30.23,7,2,8,0.00
2012-3-18,72,51,34,51,42,34,100,75,41,30.29,30.12,6,3,11,0.00
2012-3-19,73,55,45,57,48,42,94,77,55,30.27,30.14,12,3,20,0.00
2012-3-20,75,57,40,56,49,40,100,78,46,30.33,30.23,7,3,9,0.00
2012-3-21,78,59,45,57,50,45,100,77,42,30.37,30.23,8,3,11,0.00
2012-3-22,78,60,45,58,52,44,100,76,44,30.23,30.06,6,2,10,0.00
2012-3-23,62,51,41,52,29,5,98,52,11,30.21,30.10,7,3,21,0.00
2012-3-24,56,44,35,31,17,-3,57,37,10,30.20,30.03,5,1,8,0.00
2012-3-25,47,42,40,44,38,25,99,86,49,30.02,29.75,5,1,11,0.19
2012-3-26,39,30,22,39,20,-1,100,70,36,30.04,29.64,9,4,23,0.05
2012-3-27,38,26,16,13,1,-8,58,37,14,30.23,30.05,7,3,19,0.00
2012-3-28,39,33,27,35,25,12,98,74,49,30.13,29.59,14,2,20,0.06
2012-3-29,36,33,30,36,31,28,100,94,84,29.93,29.59,3,1,9,0.00
2012-3-30,40,31,24,28,21,14,97,68,36,30.05,29.92,7,2,15,0.05
2012-3-31,48,35,27,22,18,8,79,55,21,30.05,29.88,6,2,11,0.00
2012-4-1,47,34,24,34,25,19,98,73,36,29.91,29.69,5,1,10,0.00
2012-4-2,47,36,27,33,22,6,99,65,20,29.84,29.68,9,2,18,0.02
2012-4-3,49,36,24,24,14,6,62,44,24,29.90,29.75,7,2,14,0.00
2012-4-4,52,40,31,29,24,19,79,54,32,29.75,29.53,5,2,17,0.00
2012-4-5,40,34,30,29,25,21,83,68,53,29.89,29.66,4,2,15,0.00
2012-4-6,47,36,30,23,19,14,72,52,31,30.02,29.89,6,2,12,0.00
2012-4-7,42,36,29,29,20,14,82,55,41,30.04,29.98,7,2,15,0.00
2012-4-8,40,36,32,35,29,26,97,77,57,30.00,29.56,6,2,15,0.03
2012-4-9,40,38,36,38,34,31,98,87,74,29.57,29.44,8,4,17,0.14
2012-4-10,47,41,36,40,36,33,100,85,68,29.76,29.55,10,3,20,0.06
2012-4-11,52,41,35,39,35,32,99,79,49,29.94,29.77,6,2,12,0.09
2012-4-12,50,40,32,38,34,27,100,80,41,30.12,29.94,7,2,13,0.01
2012-4-13,59,43,28,35,27,18,97,61,22,30.17,30.05,7,2,13,0.00
2012-4-14,66,48,33,34,28,16,84,51,16,30.15,29.99,7,3,13,0.00
2012-4-15,74,58,43,54,43,32,81,59,44,30.02,29.92,7,2,16,0.00
2012-4-16,84,70,58,62,54,47,94,61,31,30.01,29.86,10,4,23,0.00
2012-4-17,74,64,45,56,42,26,80,48,18,30.23,29.88,9,2,18,0.00
2012-4-18,59,45,34,33,29,25,79,56,31,30.30,30.13,7,2,11,0.00
2012-4-19,69,51,32,39,32,23,90,54,19,30.13,29.95,7,2,13,0.00
2012-4-20,74,60,44,51,43,36,85,57,33,30.01,29.85,13,3,23,0.00
2012-4-21,72,58,43,59,51,43,100,79,56,29.85,29.73,9,3,18,0.98
2012-4-22,44,40,38,43,40,38,100,98,91,29.93,29.80,5,1,9,1.06
2012-4-23,59,48,37,56,47,37,100,98,86,29.80,29.31,7,2,18,0.66
2012-4-24,50,45,41,48,37,31,98,75,53,29.68,29.35,14,6,31,0.04
2012-4-25,52,43,37,38,35,30,95,75,47,29.89,29.68,10,3,20,0.02
2012-4-26,60,47,34,46,36,25,99,69,29,29.92,29.58,12,4,29,0.16
2012-4-27,47,36,29,46,34,23,100,91,76,30.03,29.55,7,2,16,0.27
2012-4-28,45,34,26,25,20,13,86,59,30,30.13,30.03,6,2,17,0.01
2012-4-29,48,37,27,21,15,7,76,44,20,30.23,30.07,7,3,18,0.00
2012-4-30,59,43,28,33,23,15,76,47,24,30.35,30.13,6,2,13,0.00
2012-5-1,50,44,41,44,39,25,100,84,40,30.14,30.05,8,2,16,0.40
2012-5-2,60,48,40,50,44,40,100,88,68,30.20,30.11,13,2,17,0.00
2012-5-3,64,52,44,54,48,44,100,90,66,30.17,30.05,5,1,10,0.05
2012-5-4,54,51,49,54,51,49,100,100,95,30.05,29.91,2,0,4,0.42
2012-5-5,60,51,42,51,44,32,100,81,36,30.12,29.93,6,2,11,0.06
2012-5-6,66,50,36,44,36,20,98,65,22,30.14,30.05,6,2,9,0.00
2012-5-7,70,54,35,43,32,18,83,51,14,30.16,30.02,16,4,28,0.00
2012-5-8,55,49,46,49,46,43,100,90,65,30.04,29.84,14,5,29,0.66
2012-5-9,58,53,47,58,53,47,100,100,94,29.84,29.62,9,1,13,0.09
2012-5-10,54,49,44,54,49,43,100,98,90,29.64,29.44,4,1,9,0.36
2012-5-11,59,48,41,43,39,31,100,75,37,29.99,29.63,5,2,13,0.07
2012-5-12,72,55,36,50,39,28,90,59,24,30.11,30.00,5,2,13,0.00
2012-5-13,75,61,51,57,52,46,92,73,41,30.15,30.07,5,1,11,0.00
2012-5-14,67,58,49,59,55,49,100,90,66,30.16,30.09,11,2,18,0.01
2012-5-15,63,58,55,63,58,55,100,99,95,30.11,29.97,12,2,21,0.49
2012-5-16,74,61,52,64,57,52,100,88,57,29.97,29.76,13,2,21,0.07
2012-5-17,61,52,43,56,41,33,100,70,36,30.16,29.83,6,2,13,0.01
2012-5-18,70,54,38,49,39,32,94,64,27,30.24,30.13,6,2,11,0.00
2012-5-19,79,62,45,59,48,42,92,65,31,30.21,30.10,4,2,7,0.00
2012-5-20,85,68,51,59,53,48,97,64,32,30.27,30.17,10,2,17,0.00
2012-5-21,81,67,54,59,52,46,91,62,32,30.26,30.06,7,3,19,0.00
2012-5-22,72,65,59,66,62,59,100,91,71,30.05,29.86,10,1,17,0.43
2012-5-23,75,65,58,68,61,57,100,89,55,30.05,29.86,4,1,9,0.02
2012-5-24,79,66,54,68,61,54,100,85,63,30.19,30.05,10,3,20,0.00
2012-5-25,70,64,59,65,62,58,99,91,80,30.21,30.03,14,6,23,0.01
2012-5-26,78,68,56,65,59,48,100,75,38,30.14,30.03,5,2,15,0.00
2012-5-27,75,63,50,57,52,49,98,71,41,30.20,30.03,4,1,8,0.00
2012-5-28,78,66,54,63,57,52,95,76,53,30.06,29.87,14,2,26,0.01
2012-5-29,77,64,58,72,63,58,100,96,77,29.89,29.69,11,2,25,2.33
2012-5-30,76,66,60,64,61,58,100,87,55,29.74,29.67,8,2,13,0.16
2012-5-31,70,60,50,60,55,48,100,83,56,29.98,29.73,4,1,10,0.01
2012-6-1,73,58,44,52,47,40,100,70,33,30.07,29.96,7,2,11,0.00
2012-6-2,59,54,51,53,48,38,100,82,48,29.98,29.74,14,3,28,0.65
2012-6-3,60,54,50,55,52,49,100,93,74,29.75,29.69,4,1,14,0.08
2012-6-4,53,50,47,51,49,47,100,97,89,29.84,29.68,4,1,13,0.10
2012-6-5,60,52,46,56,50,46,100,92,76,29.93,29.81,4,1,8,0.04
2012-6-6,65,54,46,57,51,46,100,90,58,29.98,29.91,6,1,9,0.10
2012-6-7,68,57,47,59,52,47,100,85,56,29.97,29.89,8,2,14,0.03
2012-6-8,73,58,48,63,54,48,100,90,55,29.91,29.72,9,2,15,0.40
2012-6-9,72,59,49,58,51,45,100,78,39,29.97,29.79,5,2,10,0.00
2012-6-10,78,62,46,61,51,45,100,70,32,30.16,29.97,11,2,21,0.00
2012-6-11,77,66,55,62,57,51,93,74,57,30.23,30.12,10,3,15,0.00
2012-6-12,79,66,56,66,61,55,100,86,60,30.13,29.90,7,2,20,0.08
2012-6-13,73,63,55,66,61,54,100,92,68,30.12,29.85,4,1,14,0.40
2012-6-14,74,62,49,55,51,44,100,70,37,30.28,30.13,4,2,12,0.00
2012-6-15,77,62,47,61,50,45,99,69,34,30.35,30.25,8,2,14,0.00
2012-6-16,79,64,51,62,56,51,100,79,40,30.34,30.20,10,3,17,0.00
2012-6-17,78,63,53,62,57,53,100,82,51,30.23,30.04,11,3,18,0.00
2012-6-18,75,62,50,61,54,50,100,79,45,30.11,30.03,11,2,20,0.00
2012-6-19,78,66,50,70,61,50,100,87,68,30.10,29.97,6,2,10,0.00
2012-6-20,88,76,64,75,69,64,100,81,46,30.00,29.89,4,1,8,0.00
2012-6-21,88,78,70,76,72,68,99,82,56,29.90,29.75,4,2,8,0.00
2012-6-22,85,74,62,74,66,59,100,79,48,29.81,29.75,4,2,8,0.00
2012-6-23,79,64,58,69,62,58,100,92,64,29.93,29.81,6,1,14,0.68
2012-6-24,80,64,51,62,56,51,100,78,39,29.95,29.85,4,1,10,0.02
2012-6-25,64,60,56,64,60,56,100,100,98,29.87,29.66,7,0,11,0.96
2012-6-26,58,55,53,58,55,53,100,100,100,29.69,29.54,3,0,9,0.30
2012-6-27,61,57,54,61,57,54,100,100,97,29.71,29.50,4,1,10,0.11
2012-6-28,73,63,56,66,60,56,100,92,66,29.75,29.70,4,1,9,0.01
2012-6-29,84,68,55,74,63,55,100,85,62,29.72,29.52,7,2,14,0.25
2012-6-30,83,72,60,66,60,56,99,68,41,29.70,29.61,6,2,13,0.00
2012-7-1,81,69,60,70,63,59,100,82,60,29.85,29.70,4,2,10,0.00
2012-7-2,77,66,57,66,61,57,100,86,59,29.91,29.84,7,1,12,0.26
2012-7-3,77,64,53,64,58,53,100,83,48,29.94,29.82,4,1,8,0.01
2012-7-4,81,66,58,73,64,57,100,94,71,29.82,29.67,12,1,22,0.66
2012-7-5,71,65,60,68,64,60,100,97,85,29.89,29.72,3,1,6,0.01
2012-7-6,83,69,55,72,64,55,100,85,55,29.94,29.81,5,1,8,0.00
2012-7-7,79,71,65,70,67,63,100,87,62,29.83,29.73,4,1,13,0.00
2012-7-8,75,66,57,63,58,49,100,77,44,29.89,29.78,4,2,10,0.00
2012-7-9,73,60,49,56,51,47,100,74,42,29.98,29.87,5,2,13,0.00
2012-7-10,76,62,47,59,52,46,100,74,40,30.07,29.98,4,1,9,0.00
2012-7-11,80,66,52,65,57,52,100,75,42,30.17,30.07,7,2,9,0.00
2012-7-12,84,69,54,68,59,54,100,75,40,30.17,30.07,5,2,12,0.00
2012-7-13,86,71,57,68,61,57,100,75,41,30.18,30.08,5,2,12,0.00
2012-7-14,87,73,59,72,64,56,99,77,44,30.15,30.04,4,1,8,0.00
2012-7-15,87,72,62,75,68,62,100,89,59,30.09,29.87,7,2,17,0.05
2012-7-16,84,73,66,74,70,66,100,90,69,29.86,29.76,5,1,9,0.01
2012-7-17,86,72,63,76,69,63,100,91,67,29.79,29.60,9,2,18,0.07
2012-7-18,81,70,56,70,64,54,100,84,58,29.93,29.70,4,1,11,0.05
2012-7-19,72,60,50,58,53,50,100,80,48,30.04,29.93,3,2,8,0.00
2012-7-20,77,61,47,61,53,47,100,78,42,30.09,30.00,4,2,8,0.00
2012-7-21,79,65,52,63,56,52,100,74,41,30.09,29.99,11,2,19,0.00
2012-7-22,82,71,59,69,62,55,99,76,53,30.08,29.99,8,2,18,0.00
2012-7-23,85,74,65,73,68,62,100,82,60,30.01,29.72,12,2,35,1.25
2012-7-24,76,68,58,73,66,56,100,94,75,29.73,29.57,15,2,23,1.38
2012-7-25,73,62,52,61,57,52,100,85,56,29.85,29.73,4,1,9,0.00
2012-7-26,65,61,56,65,61,56,100,99,94,29.77,29.62,3,0,4,0.05
2012-7-27,78,67,61,70,65,61,100,93,71,29.91,29.63,4,1,6,0.01
2012-7-28,78,67,60,71,65,60,100,96,75,29.98,29.91,4,0,8,0.44
2012-7-29,75,67,62,69,65,62,100,95,75,30.04,29.95,6,1,10,0.00
2012-7-30,81,69,58,71,64,58,100,87,59,30.08,29.99,7,2,11,0.00
2012-7-31,82,70,60,71,63,56,100,82,44,30.04,29.89,10,3,20,0.00
2012-8-1,75,66,56,73,65,56,100,96,80,29.89,29.80,5,1,8,0.05
2012-8-2,84,72,61,73,67,61,100,87,60,29.86,29.80,6,2,9,0.00
2012-8-3,84,73,64,74,69,64,100,88,59,30.09,29.85,4,1,9,0.00
2012-8-4,89,73,59,73,67,59,100,83,54,30.19,30.09,9,3,17,0.00
2012-8-5,84,74,66,76,70,62,100,87,71,30.15,29.80,12,6,21,0.28
2012-8-6,73,66,56,70,63,56,100,89,64,29.97,29.85,4,2,11,0.00
2012-8-7,80,65,52,64,58,52,100,81,46,29.99,29.89,6,2,8,0.00
2012-8-8,83,68,55,70,62,55,100,81,49,29.98,29.91,4,1,6,0.00
2012-8-9,83,69,60,74,66,60,100,92,59,29.95,29.85,10,1,15,1.38
2012-8-10,77,68,64,74,68,64,100,98,83,29.88,29.79,9,1,16,0.34
2012-8-11,79,69,62,74,68,62,100,96,81,29.87,29.80,8,1,15,0.03
2012-8-12,81,70,64,73,68,63,100,92,69,29.89,29.80,9,2,15,0.01
2012-8-13,78,68,59,70,64,59,100,91,65,29.91,29.86,4,1,7,0.00
2012-8-14,79,67,58,70,64,58,100,91,63,29.92,29.85,3,1,8,0.00
2012-8-15,77,68,62,72,66,62,100,94,72,29.87,29.82,6,1,9,0.90
2012-8-16,75,66,57,69,64,57,100,95,76,29.85,29.77,5,1,10,0.01
2012-8-17,80,65,54,71,63,54,100,93,68,29.85,29.73,7,1,13,0.13
2012-8-18,73,63,53,65,59,52,100,89,63,29.94,29.82,6,1,8,0.00
2012-8-19,74,59,46,62,53,46,100,84,54,30.01,29.90,4,1,8,0.00
2012-8-20,77,61,48,61,54,48,100,82,41,29.94,29.83,5,1,8,0.00
2012-8-21,75,63,54,63,58,53,100,84,53,30.08,29.90,5,2,8,0.02
2012-8-22,77,62,50,62,54,50,100,80,42,30.15,30.07,7,2,13,0.00
2012-8-23,79,65,53,65,59,53,100,83,54,30.13,30.06,4,1,9,0.00
2012-8-24,82,68,59,68,62,59,100,85,50,30.21,30.12,6,2,7,0.00
2012-8-25,82,68,56,72,64,56,100,89,64,30.34,30.22,10,3,18,0.00
2012-8-26,84,70,58,70,65,58,100,84,58,30.36,30.22,10,3,14,0.00
2012-8-27,81,69,59,71,66,59,100,91,65,30.22,29.91,6,2,15,0.10
2012-8-28,73,66,56,71,64,54,100,94,77,29.94,29.80,4,1,12,0.72
2012-8-29,71,58,46,56,52,46,100,81,53,30.02,29.95,4,2,11,0.00
2012-8-30,76,62,47,64,55,47,100,81,54,30.05,29.94,7,2,15,0.00
2012-8-31,75,67,60,68,61,54,100,81,63,29.97,29.80,7,3,16,0.04
2012-9-1,76,64,55,65,60,55,100,87,50,30.13,29.92,4,1,7,0.00
2012-9-2,74,60,52,65,56,52,100,90,54,30.17,30.10,5,1,8,0.20
2012-9-3,76,61,47,65,56,47,100,85,55,30.24,30.12,10,2,19,0.00
2012-9-4,66,62,57,66,62,57,100,100,94,30.14,29.86,4,0,7,0.04
2012-9-5,70,65,60,70,65,60,100,100,90,29.90,29.69,10,2,23,0.76
2012-9-6,76,65,58,70,64,58,100,95,72,29.95,29.85,8,2,12,0.00
2012-9-7,78,66,59,70,62,59,100,89,55,29.97,29.88,6,2,11,0.00
2012-9-8,79,68,59,70,65,59,100,92,67,29.92,29.56,12,6,26,0.58
2012-9-9,67,58,50,59,54,50,100,89,63,29.93,29.72,6,2,13,0.02
2012-9-10,58,52,46,53,49,46,100,92,75,30.09,29.93,3,1,12,0.00
2012-9-11,67,52,40,54,47,40,100,85,49,30.26,30.09,4,2,8,0.00
2012-9-12,75,58,44,63,53,44,100,85,59,30.36,30.27,9,2,14,0.00
2012-9-13,79,63,50,65,58,50,100,86,54,30.35,30.24,7,2,8,0.00
2012-9-14,80,65,53,68,60,53,100,86,59,30.26,30.03,9,2,16,0.00
2012-9-15,65,58,48,61,53,47,100,86,68,30.07,29.98,5,2,11,0.00
2012-9-16,61,49,40,48,42,38,100,81,45,30.11,30.02,4,2,8,0.00
2012-9-17,72,55,38,61,49,38,100,83,57,30.09,30.00,11,3,15,0.00
2012-9-18,66,59,53,66,56,52,100,92,75,30.03,29.62,11,6,21,0.13
2012-9-19,63,54,42,63,49,39,100,85,48,30.23,29.66,6,2,12,0.19
2012-9-20,64,48,35,50,42,35,100,82,48,30.28,30.14,10,2,18,0.00
2012-9-21,70,54,41,57,49,41,100,86,59,30.15,30.03,12,2,17,0.00
2012-9-22,73,57,43,61,54,43,100,89,54,30.05,29.81,12,3,21,0.03
2012-9-23,63,54,44,59,49,42,100,84,50,30.09,29.81,5,1,11,0.27
2012-9-24,60,48,38,48,42,38,100,83,53,30.13,30.03,7,2,13,0.00
2012-9-25,67,52,38,48,44,38,100,75,44,30.10,30.04,10,3,20,0.00
2012-9-26,60,55,49,59,54,46,100,96,75,30.08,29.98,7,2,13,0.07
2012-9-27,59,50,40,56,46,39,100,87,56,30.27,30.04,4,1,9,0.12
2012-9-28,48,42,35,48,42,34,100,99,94,30.26,30.06,1,0,3,0.02
2012-9-29,54,50,47,54,50,47,100,100,98,30.06,29.91,3,0,6,0.04
2012-9-30,54,51,48,54,51,48,100,100,100,29.93,29.64,3,0,7,0.23
2012-10-1,55,51,48,55,51,48,100,100,97,29.92,29.60,7,3,18,0.16
2012-10-2,65,56,49,60,55,49,100,95,81,30.07,29.93,3,1,6,0.00
2012-10-3,62,58,55,62,58,55,100,100,100,30.17,30.07,2,0,3,0.16
2012-10-4,60,58,55,60,58,55,100,100,100,30.17,30.04,2,0,5,0.06
2012-10-5,71,60,51,64,57,51,100,90,69,30.04,29.89,6,2,13,0.00
2012-10-6,68,58,44,62,56,43,100,93,76,29.92,29.69,11,4,25,0.38
2012-10-7,51,44,38,44,42,38,100,91,72,30.05,29.92,6,1,8,0.09
2012-10-8,50,43,37,46,40,36,100,92,63,30.30,30.04,4,1,10,0.11
2012-10-9,54,43,32,45,39,32,100,89,64,30.30,30.13,10,2,14,0.01
2012-10-10,58,48,42,54,47,42,100,96,78,30.12,29.72,9,2,20,0.14
2012-10-11,50,43,37,44,38,34,100,82,57,30.04,29.78,8,2,15,0.02
2012-10-12,46,40,31,42,33,26,99,78,61,30.32,29.90,11,3,25,0.08
2012-10-13,46,36,25,33,28,24,94,74,49,30.39,30.22,6,2,10,0.00
2012-10-14,46,42,36,46,41,28,100,98,61,30.24,29.87,7,0,20,0.09
2012-10-15,65,54,44,60,53,44,100,97,83,29.86,29.62,10,3,20,0.13
2012-10-16,53,43,38,53,41,34,100,92,84,29.89,29.61,4,2,16,0.01
2012-10-17,56,42,30,43,37,30,100,83,53,29.99,29.89,6,2,8,0.00
2012-10-18,66,49,37,46,41,36,99,78,45,30.09,29.99,12,3,22,0.00
2012-10-19,57,52,45,56,51,43,100,95,82,30.09,29.75,11,2,23,0.09
2012-10-20,69,59,50,63,57,50,100,93,64,29.76,29.61,9,2,19,0.33
2012-10-21,51,48,43,50,44,41,99,89,80,29.86,29.72,7,2,15,0.00
2012-10-22,49,46,42,44,42,40,95,88,81,30.02,29.86,4,2,12,0.00
2012-10-23,55,45,36,44,39,33,99,81,49,30.16,30.02,5,2,8,0.00
2012-10-24,56,41,30,39,33,25,99,74,32,30.22,30.13,5,2,8,0.00
2012-10-25,65,49,37,46,39,32,93,73,37,30.28,30.20,5,2,8,0.00
2012-10-26,69,53,42,59,49,41,100,88,64,30.23,30.10,5,1,7,0.00
2012-10-27,68,54,44,59,51,44,100,94,73,30.13,30.00,5,1,8,0.00
2012-10-28,61,51,44,50,47,43,100,88,65,30.05,29.92,6,2,9,0.00
2012-10-29,56,52,44,56,51,44,100,97,88,29.91,29.42,7,2,28,0.75
2012-10-30,65,58,54,60,56,54,100,96,75,29.62,29.44,11,2,21,1.10
2012-10-31,58,52,46,55,50,44,100,92,79,29.57,29.48,10,3,21,0.02
2012-11-1,46,44,42,44,40,38,93,88,80,29.53,29.49,7,2,11,0.00
2012-11-2,45,42,39,41,40,37,96,92,84,29.64,29.51,3,1,8,0.02
2012-11-3,40,38,36,38,36,35,99,94,87,29.83,29.64,3,1,8,0.03
2012-11-4,38,34,31,36,33,26,100,96,82,29.97,29.83,3,1,7,0.02
2012-11-5,32,30,27,29,25,19,93,80,59,30.08,29.95,5,1,12,0.03
2012-11-6,37,28,21,24,20,16,88,73,50,30.20,30.07,4,1,8,0.01
2012-11-7,31,26,17,23,19,15,93,78,61,30.21,29.92,4,1,11,0.00
2012-11-8,33,31,29,32,28,20,100,89,62,29.92,29.82,7,2,15,0.02
2012-11-9,42,37,32,34,31,28,96,81,63,30.09,29.92,4,1,10,0.05
2012-11-10,46,36,29,35,29,24,93,75,48,30.41,30.08,5,2,13,0.00
2012-11-11,55,40,32,45,35,26,99,84,63,30.41,30.31,7,2,9,0.00
2012-11-12,63,50,37,53,44,37,100,84,57,30.39,30.13,16,5,29,0.00
2012-11-13,59,42,28,56,40,27,100,95,88,30.44,30.04,11,2,24,0.78
2012-11-14,38,30,24,29,25,22,100,85,58,30.56,30.44,4,1,10,0.01
2012-11-15,39,29,22,30,25,20,95,87,65,30.48,30.29,3,1,5,0.00
2012-11-16,39,29,22,31,25,20,97,88,66,30.44,30.29,4,1,7,0.00
2012-11-17,44,32,25,33,26,19,98,81,54,30.64,30.44,4,2,7,0.00
2012-11-18,43,29,20,27,22,17,89,76,48,30.68,30.59,5,1,7,0.00
2012-11-19,45,30,22,30,24,20,94,81,53,30.59,30.27,5,1,7,0.00
2012-11-20,45,32,22,32,26,20,92,81,54,30.27,30.13,5,1,7,0.00
2012-11-21,50,35,28,34,29,25,92,79,48,30.25,30.17,5,1,7,0.00
2012-11-22,51,34,26,38,30,25,98,85,57,30.25,30.08,6,1,8,0.00
2012-11-23,54,40,28,41,34,28,97,79,48,30.08,29.60,12,3,22,0.01
2012-11-24,44,34,25,41,29,21,99,82,64,29.59,29.50,5,1,19,0.02
2012-11-25,31,24,19,20,17,13,89,74,58,29.78,29.59,5,2,16,0.00
2012-11-26,31,22,16,27,18,13,93,84,73,30.20,29.78,6,1,9,0.00
2012-11-27,31,25,19,25,21,16,91,86,75,30.25,30.20,0,0,0,0.00
2012-11-28,35,28,19,26,22,16,91,80,59,30.22,30.06,7,1,15,0.00
2012-11-29,34,28,22,30,22,15,98,80,63,30.21,30.01,7,1,19,0.11
2012-11-30,23,14,9,19,7,4,91,73,47,30.52,30.22,0,0,4,0.00
2012-12-1,25,19,11,24,15,6,95,86,78,30.56,30.41,0,0,4,0.04
2012-12-2,44,36,25,43,35,24,100,97,85,30.42,29.94,10,2,20,0.43
2012-12-3,43,40,34,43,39,33,100,99,96,30.28,29.94,5,1,13,0.00
2012-12-4,48,36,30,48,36,30,100,100,98,30.28,29.88,7,1,12,0.01
2012-12-5,50,37,25,50,35,19,100,92,76,30.15,29.82,7,2,15,0.49
2012-12-6,32,25,21,22,19,16,92,79,60,30.33,30.15,5,2,11,0.00
2012-12-7,39,29,21,29,24,19,94,83,59,30.22,30.02,2,0,9,0.00
2012-12-8,37,33,29,36,32,27,100,95,88,30.03,29.82,2,0,5,0.01
2012-12-9,42,34,29,37,30,25,100,85,64,30.29,29.93,4,0,11,0.00
2012-12-10,40,36,30,40,35,26,100,98,82,30.10,29.50,8,1,16,0.63
2012-12-11,38,30,25,38,28,21,100,90,81,30.13,29.60,4,1,8,0.02
2012-12-12,38,28,22,26,23,19,91,81,60,30.35,30.13,6,2,8,0.00
2012-12-13,37,29,23,29,25,21,95,86,65,30.42,30.24,6,1,7,0.00
2012-12-14,38,30,21,31,26,20,97,87,68,30.24,30.03,5,1,14,0.00
2012-12-15,33,24,15,26,15,7,86,69,35,30.32,30.16,6,1,8,0.00
2012-12-16,24,19,15,23,16,9,96,85,76,30.29,30.06,2,0,6,0.08
2012-12-17,36,29,24,33,28,23,100,96,86,30.06,29.85,5,1,18,0.05
2012-12-18,42,38,33,39,36,33,100,94,87,29.85,29.47,7,2,17,0.13
2012-12-19,35,32,31,34,32,31,100,100,97,30.05,29.50,1,0,7,0.25
2012-12-20,33,31,28,32,30,28,100,98,93,30.20,29.97,5,0,8,0.00
2012-12-21,45,36,29,45,35,29,100,96,88,29.97,29.02,11,4,33,0.40
2012-12-22,34,28,18,31,24,13,93,86,77,29.60,29.13,9,3,16,0.04
2012-12-23,31,22,14,26,18,10,99,83,63,29.78,29.60,6,2,13,0.04
2012-12-24,32,20,11,22,15,9,92,82,62,30.03,29.79,6,2,11,0.02
2012-12-25,27,16,8,23,14,6,93,89,82,30.27,29.97,1,0,6,0.09
2012-12-26,26,15,4,19,11,0,93,83,66,30.32,29.98,4,0,8,0.00
2012-12-27,28,25,21,28,24,19,100,97,80,29.97,29.50,8,2,17,0.67
2012-12-28,24,21,17,22,20,15,97,92,88,29.99,29.68,3,0,8,0.08
2012-12-29,22,19,14,20,17,12,97,93,88,29.99,29.52,5,1,9,0.02
2012-12-30,21,14,6,20,10,2,96,85,77,29.97,29.51,6,1,13,0.06
2012-12-31,26,18,7,24,15,3,96,89,83,29.99,29.64,9,2,19,0.08
2013-1-1,26,17,4,26,11,-1,99,78,56,29.87,29.62,7,2,16,0.05